Time,TemperatureF,DewpointF,PressureIn,WindDirection,WindDirectionDegrees,WindSpeedMPH,WindSpeedGustMPH,Humidity,HourlyPrecipIn,Conditions,Clouds,dailyrainin,SoftwareType,DateUTC
2013-02-10 00:11:00,46.0,43.0,-100.00,NE,45,-999.0,-999.0,89,-99.99,,,-99.99,,2013-02-10 08:11:00,
2013-02-10 00:21:00,46.0,43.0,-100.00,NE,45,-999.0,-999.0,89,-99.99,,,-99.99,,2013-02-10 08:21:00,
2013-02-10 00:32:00,46.0,43.0,-100.00,NE,45,-999.0,-999.0,89,-99.99,,,-99.99,,2013-02-10 08:32:00,
2013-02-10 00:43:00,45.0,42.0,-100.00,NE,48,-999.0,13.0,88,-99.99,,,0.00,,2013-02-10 08:43:00,
2013-02-10 00:52:00,45.0,42.0,-100.00,NE,48,-999.0,13.0,88,-99.99,,,0.00,,2013-02-10 08:52:00,
2013-02-10 01:02:00,45.0,42.0,-100.00,NE,48,-999.0,13.0,88,-99.99,,,0.00,,2013-02-10 09:02:00,
2013-02-10 01:11:00,45.0,41.0,-100.00,NNE,16,-999.0,13.0,86,-99.99,,,-99.99,,2013-02-10 09:11:00,
2013-02-10 01:21:00,45.0,41.0,-100.00,NNE,16,-999.0,13.0,86,-99.99,,,-99.99,,2013-02-10 09:21:00,
2013-02-10 01:31:00,45.0,41.0,-100.00,NNE,16,-999.0,13.0,86,-99.99,,,-99.99,,2013-02-10 09:31:00,
2013-02-10 01:41:00,45.0,40.0,0.00,NE,37,-999.0,-999.0,84,-99.99,,,-99.99,,2013-02-10 09:41:00,
2013-02-10 01:52:00,45.0,40.0,0.00,NE,37,-999.0,-999.0,84,-99.99,,,-99.99,,2013-02-10 09:52:00,
2013-02-10 02:01:00,45.0,40.0,0.00,NE,37,-999.0,-999.0,84,-99.99,,,-99.99,,2013-02-10 10:01:00,
2013-02-10 02:11:00,45.0,40.0,0.00,NE,37,-999.0,-999.0,84,-99.99,,,-99.99,,2013-02-10 10:11:00,
2013-02-10 03:11:00,46.0,39.0,-100.00,NE,56,-999.0,13.0,77,-99.99,,,-99.99,,2013-02-10 11:11:00,
2013-02-10 03:21:00,46.0,39.0,-100.00,NE,56,-999.0,13.0,77,-99.99,,,-99.99,,2013-02-10 11:21:00,
2013-02-10 03:32:00,46.0,39.0,-100.00,NE,56,-999.0,13.0,77,-99.99,,,-99.99,,2013-02-10 11:32:00,
2013-02-10 03:42:00,45.0,38.0,-100.00,NE,44,-999.0,13.0,77,-99.99,,,0.00,,2013-02-10 11:42:00,
2013-02-10 03:52:00,45.0,38.0,-100.00,NE,44,-999.0,13.0,77,-99.99,,,0.00,,2013-02-10 11:52:00,
2013-02-10 04:01:00,45.0,38.0,-100.00,NE,44,-999.0,13.0,77,-99.99,,,0.00,,2013-02-10 12:01:00,
2013-02-10 04:12:00,45.0,38.0,-100.00,NE,48,-999.0,13.0,76,-99.99,,,-99.99,,2013-02-10 12:12:00,
2013-02-10 04:21:00,45.0,38.0,-100.00,NE,48,-999.0,13.0,76,-99.99,,,-99.99,,2013-02-10 12:21:00,
2013-02-10 04:32:00,45.0,38.0,-100.00,NE,48,-999.0,13.0,76,-99.99,,,-99.99,,2013-02-10 12:32:00,
2013-02-10 04:41:00,45.0,37.0,0.00,NNE,19,-999.0,13.0,74,-99.99,,,-99.99,,2013-02-10 12:41:00,
2013-02-10 04:52:00,45.0,37.0,0.00,NNE,19,-999.0,13.0,74,-99.99,,,-99.99,,2013-02-10 12:52:00,
2013-02-10 05:02:00,45.0,37.0,0.00,NNE,19,-999.0,13.0,74,-99.99,,,-99.99,,2013-02-10 13:02:00,
2013-02-10 05:11:00,45.0,37.0,0.00,NNE,19,-999.0,13.0,74,-99.99,,,-99.99,,2013-02-10 13:11:00,
2013-02-10 05:42:00,44.0,37.0,-100.00,NNE,20,-999.0,13.0,75,-99.99,,,0.00,,2013-02-10 13:42:00,
2013-02-10 05:52:00,44.0,37.0,-100.00,NNE,20,-999.0,13.0,75,-99.99,,,0.00,,2013-02-10 13:52:00,
2013-02-10 06:01:00,44.0,37.0,-100.00,NNE,20,-999.0,13.0,75,-99.99,,,0.00,,2013-02-10 14:01:00,
2013-02-10 06:11:00,44.0,37.0,-100.00,North,6,-999.0,13.0,75,-99.99,,,-99.99,,2013-02-10 14:11:00,
2013-02-10 06:21:00,44.0,37.0,-100.00,North,6,-999.0,13.0,75,-99.99,,,-99.99,,2013-02-10 14:21:00,
2013-02-10 06:31:00,44.0,37.0,-100.00,North,6,-999.0,13.0,75,-99.99,,,-99.99,,2013-02-10 14:31:00,
2013-02-10 06:41:00,44.0,37.0,-100.00,NNE,21,-999.0,-999.0,77,-99.99,,,0.00,,2013-02-10 14:41:00,
2013-02-10 06:52:00,44.0,37.0,-100.00,NNE,21,-999.0,-999.0,77,-99.99,,,0.00,,2013-02-10 14:52:00,
2013-02-10 07:01:00,44.0,37.0,-100.00,NNE,21,-999.0,-999.0,77,-99.99,,,0.00,,2013-02-10 15:01:00,
2013-02-10 07:11:00,44.0,37.0,-100.00,NNE,15,-999.0,-999.0,76,-99.99,,,-99.99,,2013-02-10 15:11:00,
2013-02-10 07:21:00,44.0,37.0,-100.00,NNE,15,-999.0,-999.0,76,-99.99,,,-99.99,,2013-02-10 15:21:00,
2013-02-10 07:31:00,44.0,37.0,-100.00,NNE,15,-999.0,-999.0,76,-99.99,,,-99.99,,2013-02-10 15:31:00,
2013-02-10 07:41:00,45.0,38.0,0.00,North,10,-999.0,13.0,76,-99.99,,,0.00,,2013-02-10 15:41:00,
2013-02-10 07:52:00,45.0,38.0,0.00,North,10,-999.0,13.0,76,-99.99,,,0.00,,2013-02-10 15:52:00,
2013-02-10 08:01:00,45.0,38.0,0.00,North,10,-999.0,13.0,76,-99.99,,,0.00,,2013-02-10 16:01:00,
2013-02-10 08:11:00,47.0,38.0,-100.00,NNE,33,-999.0,13.0,72,-99.99,,,-99.99,,2013-02-10 16:11:00,
2013-02-10 08:21:00,47.0,38.0,-100.00,NNE,33,-999.0,13.0,72,-99.99,,,-99.99,,2013-02-10 16:21:00,
2013-02-10 08:32:00,47.0,38.0,-100.00,NNE,33,-999.0,13.0,72,-99.99,,,-99.99,,2013-02-10 16:32:00,
2013-02-10 08:42:00,49.0,39.0,-100.00,NE,39,-999.0,-999.0,67,-99.99,,,0.00,,2013-02-10 16:42:00,
2013-02-10 08:52:00,49.0,39.0,-100.00,NE,39,-999.0,-999.0,67,-99.99,,,0.00,,2013-02-10 16:52:00,
2013-02-10 09:01:00,49.0,39.0,-100.00,NE,39,-999.0,-999.0,67,-99.99,,,0.00,,2013-02-10 17:01:00,
2013-02-10 09:11:00,50.0,38.0,-100.00,NE,51,-999.0,13.0,64,-99.99,,,-99.99,,2013-02-10 17:11:00,
2013-02-10 09:21:00,50.0,38.0,-100.00,NE,51,-999.0,13.0,64,-99.99,,,-99.99,,2013-02-10 17:21:00,
2013-02-10 09:32:00,50.0,38.0,-100.00,NE,51,-999.0,13.0,64,-99.99,,,-99.99,,2013-02-10 17:32:00,
2013-02-10 10:11:00,54.0,41.0,-100.00,NE,43,-999.0,13.0,61,-99.99,,,-99.99,,2013-02-10 18:11:00,
2013-02-10 10:21:00,54.0,41.0,-100.00,NE,43,-999.0,13.0,61,-99.99,,,-99.99,,2013-02-10 18:21:00,
2013-02-10 10:31:00,54.0,41.0,-100.00,NE,43,-999.0,13.0,61,-99.99,,,-99.99,,2013-02-10 18:31:00,
2013-02-10 10:41:00,54.0,41.0,-100.00,NE,43,-999.0,13.0,61,-99.99,,,-99.99,,2013-02-10 18:41:00,
2013-02-10 11:11:00,59.0,45.0,-100.00,SE,136,-999.0,-999.0,60,-99.99,,,-99.99,,2013-02-10 19:11:00,
2013-02-10 11:21:00,59.0,45.0,-100.00,SE,136,-999.0,-999.0,60,-99.99,,,-99.99,,2013-02-10 19:21:00,
2013-02-10 11:32:00,59.0,45.0,-100.00,SE,136,-999.0,-999.0,60,-99.99,,,-99.99,,2013-02-10 19:32:00,
2013-02-10 11:42:00,59.0,45.0,-100.00,SE,136,-999.0,-999.0,60,-99.99,,,-99.99,,2013-02-10 19:42:00,
2013-02-10 12:11:00,55.0,45.0,-100.00,West,271,-999.0,-999.0,68,-99.99,,,-99.99,,2013-02-10 20:11:00,
2013-02-10 12:21:00,55.0,45.0,-100.00,West,271,-999.0,-999.0,68,-99.99,,,-99.99,,2013-02-10 20:21:00,
2013-02-10 12:32:00,55.0,45.0,-100.00,West,271,-999.0,-999.0,68,-99.99,,,-99.99,,2013-02-10 20:32:00,
2013-02-10 12:42:00,59.0,47.0,-100.00,SSW,211,-999.0,13.0,64,-99.99,,,0.00,,2013-02-10 20:42:00,
2013-02-10 12:52:00,59.0,47.0,-100.00,SSW,211,-999.0,13.0,64,-99.99,,,0.00,,2013-02-10 20:52:00,
2013-02-10 13:02:00,59.0,47.0,-100.00,SSW,211,-999.0,13.0,64,-99.99,,,0.00,,2013-02-10 21:02:00,
2013-02-10 13:11:00,59.0,47.0,-100.00,SSW,211,-999.0,13.0,64,-99.99,,,0.00,,2013-02-10 21:11:00,
2013-02-10 14:11:00,58.0,48.0,-100.00,South,187,-999.0,13.0,69,-99.99,,,-99.99,,2013-02-10 22:11:00,
2013-02-10 14:21:00,58.0,48.0,-100.00,South,187,-999.0,13.0,69,-99.99,,,-99.99,,2013-02-10 22:21:00,
2013-02-10 14:32:00,58.0,48.0,-100.00,South,187,-999.0,13.0,69,-99.99,,,-99.99,,2013-02-10 22:32:00,
2013-02-10 14:42:00,58.0,48.0,-100.00,South,187,-999.0,13.0,69,-99.99,,,-99.99,,2013-02-10 22:42:00,
2013-02-10 15:42:00,55.0,48.0,-100.00,West,276,-999.0,13.0,78,-99.99,,,0.00,,2013-02-10 23:42:00,
2013-02-10 15:52:00,55.0,48.0,-100.00,West,276,-999.0,13.0,78,-99.99,,,0.00,,2013-02-10 23:52:00,
2013-02-10 16:01:00,55.0,48.0,-100.00,West,276,-999.0,13.0,78,-99.99,,,0.00,,2013-02-11 00:01:00,
2013-02-10 16:11:00,54.0,48.0,-100.00,NW,304,-999.0,-999.0,81,-99.99,,,-99.99,,2013-02-11 00:11:00,
2013-02-10 16:22:00,54.0,48.0,-100.00,NW,304,-999.0,-999.0,81,-99.99,,,-99.99,,2013-02-11 00:22:00,
2013-02-10 16:32:00,54.0,48.0,-100.00,NW,304,-999.0,-999.0,81,-99.99,,,-99.99,,2013-02-11 00:32:00,
2013-02-10 16:41:00,53.0,48.0,0.00,NW,310,-999.0,-999.0,84,-99.99,,,0.00,,2013-02-11 00:41:00,
2013-02-10 16:52:00,53.0,48.0,0.00,NW,310,-999.0,-999.0,84,-99.99,,,0.00,,2013-02-11 00:52:00,
2013-02-10 17:01:00,53.0,48.0,0.00,NW,310,-999.0,-999.0,84,-99.99,,,0.00,,2013-02-11 01:01:00,
2013-02-10 17:11:00,52.0,48.0,-100.00,WNW,290,-999.0,13.0,87,-99.99,,,-99.99,,2013-02-11 01:11:00,
2013-02-10 17:21:00,52.0,48.0,-100.00,WNW,290,-999.0,13.0,87,-99.99,,,-99.99,,2013-02-11 01:21:00,
2013-02-10 17:32:00,52.0,48.0,-100.00,WNW,290,-999.0,13.0,87,-99.99,,,-99.99,,2013-02-11 01:32:00,
2013-02-10 17:41:00,53.0,50.0,-100.00,NW,305,-999.0,13.0,89,-99.99,,,-99.99,,2013-02-11 01:41:00,
2013-02-10 17:52:00,53.0,50.0,-100.00,NW,305,-999.0,13.0,89,-99.99,,,-99.99,,2013-02-11 01:52:00,
2013-02-10 18:01:00,53.0,50.0,-100.00,NW,305,-999.0,13.0,89,-99.99,,,-99.99,,2013-02-11 02:01:00,
2013-02-10 18:11:00,52.0,49.0,-100.00,WNW,291,-999.0,13.0,90,-99.99,,,-99.99,,2013-02-11 02:11:00,
2013-02-10 18:21:00,52.0,49.0,-100.00,WNW,291,-999.0,13.0,90,-99.99,,,-99.99,,2013-02-11 02:21:00,
2013-02-10 18:31:00,52.0,49.0,-100.00,WNW,291,-999.0,13.0,90,-99.99,,,-99.99,,2013-02-11 02:31:00,
2013-02-10 18:41:00,52.0,49.0,-100.00,WNW,291,-999.0,13.0,90,-99.99,,,-99.99,,2013-02-11 02:41:00,
2013-02-10 19:11:00,52.0,48.0,-100.00,West,263,-999.0,13.0,86,-99.99,,,-99.99,,2013-02-11 03:11:00,
2013-02-10 19:21:00,52.0,48.0,-100.00,West,263,-999.0,13.0,86,-99.99,,,-99.99,,2013-02-11 03:21:00,
2013-02-10 19:31:00,52.0,48.0,-100.00,West,263,-999.0,13.0,86,-99.99,,,-99.99,,2013-02-11 03:31:00,
2013-02-10 19:41:00,50.0,47.0,0.00,NW,310,-999.0,-999.0,89,-99.99,,,-99.99,,2013-02-11 03:41:00,
2013-02-10 19:52:00,50.0,47.0,0.00,NW,310,-999.0,-999.0,89,-99.99,,,-99.99,,2013-02-11 03:52:00,
2013-02-10 20:01:00,50.0,47.0,0.00,NW,310,-999.0,-999.0,89,-99.99,,,-99.99,,2013-02-11 04:01:00,
2013-02-10 20:11:00,50.0,47.0,-100.00,NW,310,-999.0,-999.0,91,-99.99,,,-99.99,,2013-02-11 04:11:00,
2013-02-10 20:21:00,50.0,47.0,-100.00,NW,310,-999.0,-999.0,91,-99.99,,,-99.99,,2013-02-11 04:21:00,
2013-02-10 20:31:00,50.0,47.0,-100.00,NW,310,-999.0,-999.0,91,-99.99,,,-99.99,,2013-02-11 04:31:00,
2013-02-10 20:41:00,50.0,47.0,-100.00,NW,310,-999.0,-999.0,91,-99.99,,,-99.99,,2013-02-11 04:41:00,